createdAt,value
2019-05-02T00:03:04.478Z,7.50
2019-05-02T00:07:06.937Z,7.13
2019-05-02T00:11:10.916Z,8.30
2019-05-02T00:15:17.401Z,5.77
2019-05-02T00:19:20.419Z,7.17
2019-05-02T00:23:27.927Z,8.20
2019-05-02T00:27:28.101Z,6.90
2019-05-02T00:31:31.065Z,10.10
2019-05-02T00:35:34.018Z,7.30
2019-05-02T00:39:37.041Z,8.40
2019-05-02T00:43:39.927Z,10.57
2019-05-02T00:47:50.498Z,12.20
2019-05-02T00:51:56.602Z,10.00
2019-05-02T00:55:58.221Z,11.87
2019-05-02T01:00:01.234Z,11.23
2019-05-02T01:04:10.819Z,13.60
2019-05-02T01:08:13.833Z,13.33
2019-05-02T01:12:26.110Z,12.43
2019-05-02T01:16:21.607Z,12.07
2019-05-02T01:20:27.530Z,20.03
2019-05-02T01:24:29.367Z,16.30
2019-05-02T01:28:40.487Z,17.80
2019-05-02T01:33:06.363Z,15.73
2019-05-02T01:37:20.682Z,12.00
2019-05-02T01:41:24.020Z,15.67
2019-05-02T01:45:25.237Z,22.00
2019-05-02T01:49:28.282Z,18.23
2019-05-02T01:53:34.408Z,17.13
2019-05-02T01:57:39.877Z,17.13
2019-05-02T02:01:42.216Z,21.13
2019-05-02T02:05:45.316Z,15.73
2019-05-02T02:09:48.241Z,16.17
2019-05-02T02:13:51.467Z,18.00
2019-05-02T02:17:54.568Z,21.77
2019-05-02T02:22:27.760Z,27.17
2019-05-02T02:26:30.777Z,24.33
2019-05-02T02:30:33.885Z,28.17
2019-05-02T02:34:36.804Z,28.47
2019-05-02T02:38:39.743Z,27.47
2019-05-02T02:42:42.708Z,25.10
2019-05-02T02:46:45.961Z,23.27
2019-05-02T02:50:50.017Z,23.73
2019-05-02T02:54:52.990Z,27.10
2019-05-02T02:58:56.046Z,27.20
2019-05-02T03:02:59.134Z,30.57
2019-05-02T03:07:02.087Z,26.30
2019-05-02T03:11:05.044Z,32.63
2019-05-02T03:15:11.753Z,33.83
2019-05-02T03:19:20.938Z,32.73
2019-05-02T03:23:24.245Z,33.00
2019-05-02T03:27:29.691Z,32.07
2019-05-02T03:31:32.255Z,33.57
2019-05-02T03:35:42.656Z,43.07
2019-05-02T03:39:41.305Z,35.40
2019-05-02T03:43:44.421Z,36.70
2019-05-02T03:47:49.504Z,36.87
2019-05-02T03:51:56.019Z,37.53
2019-05-02T03:56:10.656Z,39.10
2019-05-02T04:00:05.739Z,37.03
2019-05-02T04:04:14.064Z,39.83
2019-05-02T04:08:20.844Z,46.17
2019-05-02T04:12:21.979Z,36.63
2019-05-02T04:16:26.408Z,40.43
2019-05-02T04:20:29.772Z,40.27
2019-05-02T04:24:32.982Z,44.73
2019-05-02T04:28:36.380Z,38.03
2019-05-02T04:32:42.744Z,37.83
2019-05-02T04:36:46.702Z,37.47
2019-05-02T04:40:49.566Z,38.30
2019-05-02T04:45:12.027Z,35.90
2019-05-02T04:48:58.899Z,44.20
2019-05-02T04:53:08.371Z,39.60
2019-05-02T04:57:10.780Z,39.67
2019-05-02T05:01:17.428Z,45.83
2019-05-02T05:05:25.827Z,43.43
2019-05-02T05:09:27.748Z,35.23
2019-05-02T05:13:29.916Z,29.97
2019-05-02T05:17:34.198Z,34.20
2019-05-02T05:21:39.253Z,36.57
2019-05-02T05:25:50.561Z,38.70
2019-05-02T05:29:53.710Z,32.93
2019-05-02T05:33:59.098Z,33.50
2019-05-02T05:38:02.097Z,38.07
2019-05-02T05:42:05.180Z,33.40
2019-05-02T05:46:13.047Z,37.80
2019-05-02T05:50:17.665Z,33.63
2019-05-02T05:54:20.749Z,33.73
2019-05-02T05:58:23.904Z,30.07
2019-05-02T06:02:28.396Z,29.23
2019-05-02T06:06:31.526Z,28.97
2019-05-02T06:10:34.566Z,23.70
2019-05-02T06:14:39.273Z,27.83
2019-05-02T06:18:43.692Z,28.87
2019-05-02T06:22:46.814Z,28.17
2019-05-02T06:26:51.734Z,29.40
2019-05-02T06:30:54.720Z,28.40
2019-05-02T06:34:57.652Z,31.50
2019-05-02T06:39:00.637Z,27.60
2019-05-02T06:43:04.382Z,29.17
2019-05-02T06:47:08.386Z,24.53
2019-05-02T06:51:19.510Z,25.43
2019-05-02T06:55:16.529Z,23.47
2019-05-02T06:59:20.348Z,26.40
2019-05-02T07:03:23.411Z,28.07
2019-05-02T07:07:31.391Z,25.90
2019-05-02T07:11:40.624Z,25.00
2019-05-02T07:16:16.205Z,23.50
2019-05-02T07:20:16.912Z,25.80
2019-05-02T07:24:20.028Z,24.67
2019-05-02T07:28:24.147Z,20.30
2019-05-02T07:32:28.211Z,25.30
2019-05-02T07:36:36.117Z,22.47
2019-05-02T07:40:36.054Z,24.47
2019-05-02T07:44:39.108Z,30.10
2019-05-02T07:48:43.664Z,23.87
2019-05-02T07:52:46.950Z,19.70
2019-05-02T07:56:53.347Z,27.70
2019-05-02T08:00:54.727Z,25.80
2019-05-02T08:04:57.668Z,28.40
2019-05-02T08:09:01.640Z,22.60
2019-05-02T08:13:05.695Z,19.03
2019-05-02T08:17:16.076Z,25.43
2019-05-02T08:21:13.624Z,23.80
2019-05-02T08:25:16.871Z,25.10
2019-05-02T08:29:23.411Z,38.30
2019-05-02T08:33:29.319Z,33.13
2019-05-02T08:37:29.721Z,32.37
2019-05-02T08:41:32.898Z,32.80
2019-05-02T08:45:38.299Z,29.73
2019-05-02T08:49:42.491Z,28.80
2019-05-02T08:53:45.410Z,31.23
2019-05-02T08:57:48.575Z,31.07
2019-05-02T09:01:51.583Z,34.67
2019-05-02T09:06:05.657Z,34.53
2019-05-02T09:10:05.798Z,42.70
2019-05-02T09:14:05.724Z,36.47
2019-05-02T09:18:08.671Z,40.63
2019-05-02T09:22:16.792Z,34.03
2019-05-02T09:26:34.655Z,38.33
2019-05-02T09:30:25.985Z,27.03
2019-05-02T09:34:29.379Z,41.53
2019-05-02T09:38:32.870Z,34.87
2019-05-02T09:42:35.982Z,30.20
2019-05-02T09:46:39.152Z,29.77
2019-05-02T09:50:42.327Z,24.60
2019-05-02T09:54:46.206Z,28.13
2019-05-02T09:58:49.462Z,29.80
2019-05-02T10:02:52.754Z,29.50
2019-05-02T10:06:55.887Z,31.97
2019-05-02T10:11:06.653Z,40.07
2019-05-02T10:15:12.949Z,33.10
2019-05-02T10:19:17.219Z,33.30
2019-05-02T10:23:23.393Z,37.70
2019-05-02T10:27:26.716Z,36.10
2019-05-02T10:31:35.788Z,37.33
2019-05-02T10:35:40.752Z,32.60
2019-05-02T10:39:42.763Z,28.80
2019-05-02T10:43:46.872Z,28.33
2019-05-02T10:47:52.688Z,27.40
2019-05-02T10:51:55.915Z,29.33
2019-05-02T10:55:59.029Z,30.93
2019-05-02T11:00:03.210Z,32.90
2019-05-02T11:04:08.605Z,33.73
2019-05-02T11:08:12.033Z,30.90
2019-05-02T11:12:23.890Z,28.17
2019-05-02T11:16:38.219Z,34.67
2019-05-02T11:20:42.091Z,26.70
2019-05-02T11:24:45.206Z,27.83
2019-05-02T11:28:48.347Z,31.33
2019-05-02T11:32:52.144Z,36.97
2019-05-02T11:36:55.129Z,41.40
2019-05-02T11:40:59.122Z,35.20
2019-05-02T11:45:02.687Z,31.70
2019-05-02T11:49:05.800Z,31.63
2019-05-02T11:53:22.280Z,31.17
2019-05-02T11:57:13.863Z,30.90
2019-05-02T12:01:20.187Z,29.90
2019-05-02T12:05:26.589Z,27.90
2019-05-02T12:09:31.810Z,26.13
2019-05-02T12:13:34.828Z,27.10
2019-05-02T12:17:37.825Z,24.83
2019-05-02T12:21:42.545Z,27.87
2019-05-02T12:25:45.643Z,30.33
2019-05-02T12:29:50.214Z,25.27
2019-05-02T12:33:53.733Z,24.83
2019-05-02T12:37:56.767Z,26.80
2019-05-02T12:41:59.943Z,28.33
2019-05-02T12:46:03.106Z,24.33
2019-05-02T12:50:06.413Z,26.37
2019-05-02T12:54:12.226Z,27.37
2019-05-02T12:58:15.335Z,28.30
2019-05-02T13:02:27.330Z,28.87
2019-05-02T13:06:30.247Z,27.83
2019-05-02T13:11:01.900Z,26.90
2019-05-02T13:14:59.047Z,26.17
2019-05-02T13:19:05.916Z,25.63
2019-05-02T13:23:27.246Z,24.17
2019-05-02T13:27:43.341Z,24.80
2019-05-02T13:31:44.045Z,25.03
2019-05-02T13:35:53.197Z,25.47
2019-05-02T13:40:08.322Z,21.50
2019-05-02T13:44:13.224Z,18.50
2019-05-02T13:48:16.101Z,21.23
2019-05-02T13:52:19.177Z,18.27
2019-05-02T13:56:47.048Z,19.60
2019-05-02T14:00:52.881Z,15.20
2019-05-02T14:04:55.906Z,13.67
2019-05-02T14:09:19.989Z,12.83
2019-05-02T14:13:23.258Z,8.87
2019-05-02T14:17:26.249Z,9.47
2019-05-02T14:21:29.199Z,7.60
2019-05-02T14:25:32.350Z,8.07
2019-05-02T14:29:35.310Z,10.50
2019-05-02T14:33:42.211Z,11.00
2019-05-02T14:37:45.335Z,8.50
2019-05-02T14:41:52.453Z,8.60
2019-05-02T14:45:57.627Z,7.80
2019-05-02T14:50:02.274Z,7.23
2019-05-02T14:54:07.944Z,8.20
2019-05-02T14:58:07.867Z,6.63
2019-05-02T15:02:32.095Z,9.30
2019-05-02T15:06:38.224Z,7.60
2019-05-02T15:10:50.760Z,7.17
2019-05-02T15:14:43.686Z,5.50
2019-05-02T15:18:47.637Z,7.70
2019-05-02T15:22:52.344Z,7.70
2019-05-02T15:26:55.418Z,8.27
2019-05-02T15:31:07.584Z,8.10
2019-05-02T15:35:47.832Z,6.80
2019-05-02T15:43:56.703Z,6.83
2019-05-02T15:47:59.781Z,7.50
2019-05-02T15:52:04.583Z,7.57
2019-05-02T15:56:15.766Z,6.80
2019-05-02T16:00:23.095Z,8.03
2019-05-02T16:04:28.176Z,8.20
2019-05-02T16:08:33.034Z,12.00
2019-05-02T16:12:36.600Z,6.33
2019-05-02T16:16:43.603Z,7.90
2019-05-02T16:21:06.933Z,10.83
2019-05-02T16:25:05.050Z,5.53
2019-05-02T16:29:10.929Z,2.70
2019-05-02T16:33:17.357Z,2.70
2019-05-02T16:37:17.801Z,4.23
2019-05-02T16:41:21.775Z,1.70
2019-05-02T16:45:26.889Z,2.40
2019-05-02T16:49:32.146Z,2.10
2019-05-02T16:53:35.009Z,1.97
2019-05-02T16:57:38.016Z,1.80
2019-05-02T17:01:42.509Z,2.40
2019-05-02T17:05:48.031Z,1.63
2019-05-02T17:10:21.939Z,2.80
2019-05-02T17:14:25.051Z,3.13
2019-05-02T17:18:28.787Z,3.43
2019-05-02T17:22:32.325Z,3.10
2019-05-02T17:26:37.653Z,7.17
2019-05-02T17:30:43.701Z,6.10
2019-05-02T17:34:46.727Z,3.93
2019-05-02T17:38:52.003Z,5.37
2019-05-02T17:42:57.196Z,6.43
2019-05-02T17:47:01.668Z,4.70
2019-05-02T17:51:13.696Z,3.00
2019-05-02T17:55:18.609Z,6.43
2019-05-02T17:59:21.654Z,6.80
2019-05-02T18:03:31.102Z,6.20
2019-05-02T18:07:34.201Z,11.63
2019-05-02T18:11:37.725Z,5.20
2019-05-02T18:15:39.118Z,3.73
2019-05-02T18:19:45.161Z,5.03
2019-05-02T18:23:48.109Z,6.10
2019-05-02T18:27:52.158Z,6.27
2019-05-02T18:31:55.424Z,10.17
2019-05-02T18:35:58.485Z,9.50
2019-05-02T18:40:03.070Z,6.97
2019-05-02T18:44:06.459Z,9.43
2019-05-02T18:48:09.451Z,6.30
2019-05-02T18:52:12.452Z,4.73
2019-05-02T18:56:15.572Z,7.13
2019-05-02T19:00:18.925Z,8.47
2019-05-02T19:04:25.114Z,6.60
2019-05-02T19:08:32.196Z,6.77
2019-05-02T19:12:34.373Z,8.50
2019-05-02T19:16:37.859Z,8.33
2019-05-02T19:21:02.788Z,5.07
2019-05-02T19:25:05.349Z,11.53
2019-05-02T19:29:32.184Z,10.43
2019-05-02T19:33:37.433Z,7.80
2019-05-02T19:37:46.625Z,6.50
2019-05-02T19:41:47.472Z,7.97
2019-05-02T19:45:53.894Z,10.97
2019-05-02T19:49:56.865Z,6.73
2019-05-02T19:54:03.623Z,14.53
2019-05-02T19:58:06.663Z,6.17
2019-05-02T20:02:11.790Z,7.40
2019-05-02T20:06:14.802Z,11.80
2019-05-02T20:10:19.307Z,5.10
2019-05-02T20:14:22.753Z,7.13
2019-05-02T20:18:28.097Z,9.20
2019-05-02T20:22:31.660Z,8.43
2019-05-02T20:26:34.633Z,6.60
2019-05-02T20:30:38.914Z,4.30
2019-05-02T20:34:42.006Z,5.37
2019-05-02T20:38:46.808Z,8.57
2019-05-02T20:42:49.794Z,4.83
2019-05-02T20:46:54.197Z,4.93
2019-05-02T20:50:57.165Z,9.03
2019-05-02T20:55:01.897Z,6.57
2019-05-02T20:59:07.993Z,12.77
2019-05-02T21:03:11.938Z,8.13
2019-05-02T21:07:47.040Z,6.37
2019-05-02T21:11:53.792Z,5.70
2019-05-02T21:15:57.064Z,4.50
2019-05-02T21:20:01.879Z,8.90
2019-05-02T21:24:04.835Z,8.60
2019-05-02T21:28:32.168Z,7.90
2019-05-02T21:32:35.247Z,7.60
2019-05-02T21:36:38.312Z,7.60
2019-05-02T21:40:42.326Z,5.07
2019-05-02T21:44:45.421Z,5.13
2019-05-02T21:48:49.838Z,9.37
2019-05-02T21:53:18.244Z,7.90
2019-05-02T21:57:22.688Z,7.23
2019-05-02T22:01:26.113Z,7.37
2019-05-02T22:05:29.093Z,6.97
2019-05-02T22:09:32.437Z,7.43
2019-05-02T22:13:37.392Z,7.10
2019-05-02T22:17:41.604Z,8.73
2019-05-02T22:21:44.821Z,8.23
2019-05-02T22:25:47.785Z,7.40
2019-05-02T22:29:52.373Z,7.83
2019-05-02T22:33:55.600Z,4.87
2019-05-02T22:38:06.301Z,4.53
2019-05-02T22:42:09.485Z,9.50
2019-05-02T22:46:14.606Z,5.93
2019-05-02T22:50:17.750Z,4.57
2019-05-02T22:54:29.962Z,6.10
2019-05-02T22:58:32.559Z,7.50
2019-05-02T23:02:38.864Z,5.13
2019-05-02T23:06:43.993Z,6.20
2019-05-02T23:10:46.695Z,5.87
2019-05-02T23:14:49.672Z,6.57
2019-05-02T23:18:53.365Z,6.70
2019-05-02T23:22:56.304Z,7.73
2019-05-02T23:27:32.154Z,13.87
2019-05-02T23:31:35.141Z,5.70
2019-05-02T23:35:38.228Z,11.90
2019-05-02T23:39:44.324Z,10.87
2019-05-02T23:43:49.150Z,9.67
2019-05-02T23:47:52.983Z,6.07
2019-05-02T23:51:55.958Z,7.10
2019-05-02T23:55:58.926Z,8.37
